Time;durP1;ratioP1;P1;durP2;ratioP2;P2;SDS_P1;SDS_P2;PMS_P1;PMS_P2;Temp;Humidity;BMP_temperature;BMP_pressure;BME280_temperature;BME280_humidity;BME280_pressure;Samples;Min_cycle;Max_cycle;Signal;HPM_P1;HPM_P2
2023/08/22 00:00:17;;;;;;;8.10;3.50;;;23.10;99.90;;;;;;4935219;29;20188;-80
2023/08/22 00:02:43;;;;;;;4.43;3.33;;;23.10;99.90;;;;;;4935436;29;20607;-80
2023/08/22 00:05:09;;;;;;;4.30;3.47;;;23.10;99.90;;;;;;4934825;29;20608;-80
2023/08/22 00:07:35;;;;;;;5.87;2.40;;;23.00;99.90;;;;;;4934103;29;20708;-80
2023/08/22 00:10:00;;;;;;;3.90;2.30;;;23.00;99.90;;;;;;4933888;29;20679;-80
2023/08/22 00:12:27;;;;;;;4.03;2.23;;;23.00;99.90;;;;;;4935168;29;20259;-80
2023/08/22 00:14:52;;;;;;;5.73;3.40;;;23.00;99.90;;;;;;4933646;29;20592;-80
2023/08/22 00:17:18;;;;;;;4.77;2.57;;;23.00;99.90;;;;;;4934869;29;21199;-80
2023/08/22 00:19:45;;;;;;;3.40;2.80;;;22.90;99.90;;;;;;4933780;29;20189;-80
2023/08/22 00:22:11;;;;;;;4.70;2.40;;;22.90;99.90;;;;;;4935433;29;20209;-80
2023/08/22 00:24:40;;;;;;;4.77;2.63;;;22.90;99.90;;;;;;4934714;29;20589;-79
2023/08/22 00:27:06;;;;;;;3.87;2.40;;;23.00;99.90;;;;;;4932505;29;20654;-79
2023/08/22 00:29:32;;;;;;;5.17;2.23;;;23.00;99.90;;;;;;4934769;29;20995;-79
2023/08/22 00:31:58;;;;;;;6.23;2.40;;;23.00;99.90;;;;;;4933522;29;20667;-79
2023/08/22 00:34:25;;;;;;;3.70;2.40;;;23.00;99.90;;;;;;4917646;29;20201;-79
2023/08/22 00:36:51;;;;;;;5.27;2.27;;;23.00;99.90;;;;;;4933050;29;20775;-80
2023/08/22 00:39:16;;;;;;;4.63;2.53;;;23.10;99.90;;;;;;4933448;29;20587;-79
2023/08/22 00:41:42;;;;;;;6.80;3.20;;;23.10;99.90;;;;;;4917599;29;20292;-79
2023/08/22 00:44:08;;;;;;;5.63;2.50;;;23.10;99.90;;;;;;4934223;29;20185;-79
2023/08/22 00:46:35;;;;;;;4.10;2.47;;;23.10;99.90;;;;;;4933298;29;20649;-79
2023/08/22 00:49:03;;;;;;;10.20;2.50;;;23.10;99.90;;;;;;4934414;29;20192;-79
2023/08/22 00:51:29;;;;;;;4.70;2.30;;;23.10;99.90;;;;;;4934498;29;20593;-79
2023/08/22 00:53:55;;;;;;;6.90;2.80;;;23.10;99.90;;;;;;4934414;29;20596;-79
2023/08/22 00:56:21;;;;;;;3.90;2.47;;;23.10;99.90;;;;;;4933068;29;20679;-79
2023/08/22 00:58:47;;;;;;;3.80;2.37;;;23.10;99.90;;;;;;4934917;29;20621;-79
2023/08/22 01:01:14;;;;;;;4.90;3.13;;;23.00;99.90;;;;;;4933099;29;20219;-79
2023/08/22 01:03:40;;;;;;;3.47;2.37;;;23.00;99.90;;;;;;4933374;29;20592;-79
2023/08/22 01:06:36;;;;;;;4.20;2.33;;;22.90;99.90;;;;;;4928667;29;20656;-79
2023/08/22 01:09:15;;;;;;;3.83;2.47;;;22.90;99.90;;;;;;4917802;29;20181;-79
2023/08/22 01:11:45;;;;;;;6.23;2.80;;;22.90;99.90;;;;;;4897829;29;20654;-79
2023/08/22 01:14:16;;;;;;;3.90;2.27;;;22.90;99.90;;;;;;4933244;29;20965;-79
2023/08/22 01:16:43;;;;;;;4.87;3.10;;;22.90;99.90;;;;;;4926397;29;20629;-79
2023/08/22 01:19:12;;;;;;;4.07;2.77;;;22.90;99.90;;;;;;4929394;29;20616;-79
2023/08/22 01:21:51;;;;;;;3.60;2.87;;;22.90;99.90;;;;;;4932260;29;20585;-80
2023/08/22 01:24:19;;;;;;;5.20;2.53;;;22.80;99.90;;;;;;4932258;29;20620;-79
2023/08/22 01:26:49;;;;;;;5.33;2.80;;;22.80;99.90;;;;;;4932357;29;20683;-79
2023/08/22 01:29:22;;;;;;;5.07;2.77;;;22.80;99.90;;;;;;4932792;29;20263;-79
2023/08/22 01:31:52;;;;;;;5.80;2.93;;;22.70;99.90;;;;;;4932660;29;20654;-80
2023/08/22 01:34:23;;;;;;;5.23;3.17;;;22.70;99.90;;;;;;4957002;23;20597;-77
2023/08/22 01:36:54;;;;;;;8.67;3.30;;;22.60;99.90;;;;;;4940161;29;20656;-76
2023/08/22 01:39:22;;;;;;;3.90;2.97;;;22.60;99.90;;;;;;4959567;28;21217;-75
2023/08/22 01:41:50;;;;;;;6.87;2.63;;;22.50;99.90;;;;;;4948216;29;20580;-75
2023/08/22 01:44:16;;;;;;;6.73;2.87;;;22.40;99.90;;;;;;4950736;29;20620;-75
2023/08/22 01:46:41;;;;;;;5.90;3.13;;;22.40;99.90;;;;;;4943719;29;20678;-75
2023/08/22 01:49:07;;;;;;;6.50;3.50;;;22.30;99.90;;;;;;4944837;29;20655;-76
2023/08/22 01:51:33;;;;;;;6.77;3.50;;;22.30;99.90;;;;;;4945533;29;20188;-75
2023/08/22 01:53:59;;;;;;;5.00;3.63;;;22.30;99.90;;;;;;4926892;29;20639;-76
2023/08/22 01:56:25;;;;;;;6.80;3.47;;;22.20;99.90;;;;;;4935448;29;20848;-75
2023/08/22 01:58:51;;;;;;;7.03;3.37;;;22.20;99.90;;;;;;4951452;28;20195;-75
2023/08/22 02:01:17;;;;;;;5.27;3.13;;;22.20;99.90;;;;;;4940414;29;20236;-75
2023/08/22 02:03:45;;;;;;;6.40;3.47;;;22.20;99.90;;;;;;4946370;29;20188;-75
2023/08/22 02:06:11;;;;;;;4.63;2.50;;;22.10;99.90;;;;;;4952326;28;21199;-75
2023/08/22 02:08:39;;;;;;;5.53;3.27;;;22.10;99.90;;;;;;4951274;28;20638;-75
2023/08/22 02:11:05;;;;;;;3.83;2.80;;;22.10;99.90;;;;;;4943316;28;20283;-75
2023/08/22 02:13:31;;;;;;;5.83;3.67;;;22.00;99.90;;;;;;4950963;29;20580;-75
2023/08/22 02:15:57;;;;;;;3.07;2.57;;;22.00;99.90;;;;;;4951168;28;20635;-75
2023/08/22 02:18:23;;;;;;;7.87;3.10;;;22.00;99.90;;;;;;4935288;29;20631;-75
2023/08/22 02:20:54;;;;;;;6.40;2.90;;;21.90;99.90;;;;;;4951868;28;20935;-76
2023/08/22 02:23:20;;;;;;;4.63;2.50;;;21.90;99.90;;;;;;4951516;28;20585;-76
2023/08/22 02:25:49;;;;;;;5.47;3.33;;;21.80;99.90;;;;;;4952535;28;20979;-76
2023/08/22 02:28:15;;;;;;;5.93;3.20;;;21.80;99.90;;;;;;4941922;28;20191;-75
2023/08/22 02:30:40;;;;;;;4.73;2.93;;;21.70;99.90;;;;;;4953653;28;21153;-76
2023/08/22 02:33:06;;;;;;;8.10;3.70;;;21.70;99.90;;;;;;4938204;29;20180;-75
2023/08/22 02:35:32;;;;;;;4.20;3.03;;;21.70;99.90;;;;;;4942476;28;20632;-76
2023/08/22 02:37:58;;;;;;;5.67;3.20;;;21.60;99.90;;;;;;4935494;29;20218;-75
2023/08/22 02:40:23;;;;;;;3.80;3.33;;;21.60;99.90;;;;;;4950921;28;20822;-75
2023/08/22 02:42:49;;;;;;;8.20;3.60;;;21.60;99.90;;;;;;4934284;29;20659;-75
2023/08/22 02:45:15;;;;;;;5.37;3.23;;;21.60;99.90;;;;;;4955538;28;20255;-75
2023/08/22 02:47:42;;;;;;;4.33;3.10;;;21.50;99.90;;;;;;4949456;29;20228;-75
2023/08/22 02:50:08;;;;;;;5.77;3.37;;;21.60;99.90;;;;;;4952334;29;20580;-75
2023/08/22 02:52:35;;;;;;;4.93;3.37;;;21.60;99.90;;;;;;4954643;28;20592;-75
2023/08/22 02:55:03;;;;;;;6.63;3.50;;;21.60;99.90;;;;;;4931149;28;20610;-75
2023/08/22 02:57:28;;;;;;;6.97;3.60;;;21.60;99.90;;;;;;4940517;29;20584;-75
2023/08/22 02:59:54;;;;;;;8.00;3.73;;;21.50;99.90;;;;;;4946616;28;20583;-77
2023/08/22 03:02:20;;;;;;;5.37;3.27;;;21.60;99.90;;;;;;4939540;28;20220;-76
2023/08/22 03:04:45;;;;;;;5.83;3.80;;;21.60;99.90;;;;;;4949006;29;20224;-76
2023/08/22 03:07:11;;;;;;;4.40;3.90;;;21.50;99.90;;;;;;4944388;28;20204;-76
2023/08/22 03:09:39;;;;;;;8.53;3.50;;;21.50;99.90;;;;;;4948000;28;21172;-76
2023/08/22 03:12:05;;;;;;;6.87;3.87;;;21.40;99.90;;;;;;4945962;29;20180;-76
2023/08/22 03:14:31;;;;;;;8.43;4.20;;;21.40;99.90;;;;;;4945721;29;20588;-76
2023/08/22 03:16:57;;;;;;;5.50;4.10;;;21.40;99.90;;;;;;4930300;29;21071;-76
2023/08/22 03:19:23;;;;;;;4.67;4.17;;;21.40;99.90;;;;;;4945680;28;20229;-76
2023/08/22 03:21:54;;;;;;;4.93;3.63;;;21.30;99.90;;;;;;4930964;28;20604;-76
2023/08/22 03:24:20;;;;;;;5.10;4.20;;;21.30;99.90;;;;;;4938206;29;20607;-75
2023/08/22 03:26:45;;;;;;;9.60;3.73;;;21.30;99.90;;;;;;4939800;29;20657;-75
2023/08/22 03:29:12;;;;;;;4.50;3.80;;;21.30;99.90;;;;;;4951756;28;20549;-75
2023/08/22 03:31:38;;;;;;;5.63;4.00;;;21.30;99.90;;;;;;4945756;28;20591;-76
2023/08/22 03:34:04;;;;;;;5.80;3.93;;;21.20;99.90;;;;;;4937418;29;21162;-75
2023/08/22 03:36:31;;;;;;;5.13;3.90;;;21.20;99.90;;;;;;4918748;29;20700;-76
2023/08/22 03:39:00;;;;;;;5.73;3.70;;;21.10;99.90;;;;;;4943759;29;20596;-76
2023/08/22 03:41:26;;;;;;;9.33;4.53;;;21.10;99.90;;;;;;4937712;29;20599;-76
2023/08/22 03:43:56;;;;;;;7.60;3.83;;;21.10;99.90;;;;;;4953030;29;20584;-75
2023/08/22 03:46:22;;;;;;;6.73;3.43;;;21.10;99.90;;;;;;4953161;28;20674;-75
2023/08/22 03:48:49;;;;;;;5.13;3.60;;;21.00;99.90;;;;;;4953411;28;20224;-76
2023/08/22 03:51:16;;;;;;;5.73;3.97;;;21.00;99.90;;;;;;4952986;29;20595;-75
2023/08/22 03:53:41;;;;;;;6.10;4.17;;;21.00;99.90;;;;;;4937156;29;21154;-76
2023/08/22 03:56:07;;;;;;;4.63;4.13;;;21.00;99.90;;;;;;4953716;29;20290;-75
2023/08/22 03:58:33;;;;;;;5.87;4.63;;;21.00;99.90;;;;;;4953079;28;20584;-76
2023/08/22 04:01:05;;;;;;;4.93;4.20;;;21.00;99.90;;;;;;4952913;28;20954;-77
2023/08/22 04:03:31;;;;;;;5.30;4.27;;;21.00;99.90;;;;;;4949159;28;20173;-76
2023/08/22 04:05:59;;;;;;;5.43;4.30;;;20.90;99.90;;;;;;4948920;29;21002;-76
2023/08/22 04:08:25;;;;;;;10.47;5.40;;;20.90;99.90;;;;;;4952928;28;20584;-76
2023/08/22 04:10:52;;;;;;;9.60;4.87;;;20.90;99.90;;;;;;4952835;29;21080;-76
2023/08/22 04:13:20;;;;;;;5.67;4.63;;;20.80;99.90;;;;;;4948822;28;20676;-76
2023/08/22 04:15:46;;;;;;;7.40;4.50;;;20.90;99.90;;;;;;4954448;28;20618;-78
2023/08/22 04:18:12;;;;;;;7.83;4.33;;;20.90;99.90;;;;;;4933647;29;20985;-79
2023/08/22 04:20:39;;;;;;;6.20;4.70;;;20.80;99.90;;;;;;4945532;29;20188;-79
2023/08/22 04:23:06;;;;;;;5.37;4.83;;;20.90;99.90;;;;;;4939839;28;20189;-73
2023/08/22 04:25:31;;;;;;;5.10;4.60;;;20.90;99.90;;;;;;4933058;29;21257;-73
2023/08/22 04:27:57;;;;;;;7.30;5.30;;;20.90;99.90;;;;;;4907616;29;20177;-73
2023/08/22 04:30:23;;;;;;;5.80;5.17;;;20.90;99.90;;;;;;4934090;29;20197;-72
2023/08/22 04:32:49;;;;;;;6.77;4.50;;;20.80;99.90;;;;;;4947249;29;20172;-72
2023/08/22 04:35:17;;;;;;;8.13;5.33;;;20.90;99.90;;;;;;4944034;29;20675;-72
2023/08/22 04:37:45;;;;;;;8.37;5.63;;;20.90;99.90;;;;;;4952629;29;20604;-76
2023/08/22 04:40:11;;;;;;;7.83;5.37;;;20.90;99.90;;;;;;4920245;29;20668;-76
2023/08/22 04:42:47;;;;;;;8.47;6.13;;;20.90;99.90;;;;;;4932089;29;20600;-75
2023/08/22 04:45:14;;;;;;;9.80;6.03;;;20.90;99.90;;;;;;4949017;28;20635;-75
2023/08/22 04:47:40;;;;;;;11.77;5.47;;;20.90;99.90;;;;;;4952557;29;20580;-75
2023/08/22 04:50:06;;;;;;;8.57;6.07;;;20.90;99.90;;;;;;4953907;29;20555;-76
2023/08/22 04:52:32;;;;;;;8.00;6.20;;;20.90;99.90;;;;;;4945767;28;20588;-76
2023/08/22 04:54:58;;;;;;;10.23;6.80;;;21.00;99.90;;;;;;4952077;28;20623;-76
2023/08/22 04:57:23;;;;;;;9.63;6.23;;;21.00;99.90;;;;;;4917884;29;20275;-76
2023/08/22 04:59:52;;;;;;;13.60;8.10;;;21.00;99.90;;;;;;4930884;29;20179;-76
2023/08/22 05:02:18;;;;;;;10.30;5.90;;;21.10;99.90;;;;;;4951838;29;20695;-76
2023/08/22 05:04:45;;;;;;;7.70;6.07;;;21.20;99.90;;;;;;4943715;29;20636;-76
2023/08/22 05:07:11;;;;;;;7.77;6.03;;;21.20;99.90;;;;;;4943743;28;20642;-76
2023/08/22 05:09:36;;;;;;;9.47;5.83;;;21.30;99.90;;;;;;4952004;28;21161;-76
2023/08/22 05:12:03;;;;;;;7.70;5.70;;;21.30;99.90;;;;;;4936031;29;20180;-76
2023/08/22 05:14:32;;;;;;;9.03;6.10;;;21.40;99.90;;;;;;4951467;28;20615;-76
2023/08/22 05:16:58;;;;;;;15.03;6.67;;;21.50;99.90;;;;;;4942195;28;20709;-76
2023/08/22 05:19:23;;;;;;;11.53;5.57;;;21.60;99.90;;;;;;4940265;29;20971;-76
2023/08/22 05:21:49;;;;;;;9.13;6.60;;;21.60;99.90;;;;;;4946086;29;20671;-76
2023/08/22 05:24:16;;;;;;;8.50;5.83;;;21.70;99.90;;;;;;4950882;28;20239;-77
2023/08/22 05:26:42;;;;;;;8.03;4.63;;;21.80;99.90;;;;;;4944595;29;20628;-76
2023/08/22 05:29:08;;;;;;;8.33;6.00;;;21.80;99.90;;;;;;4942817;28;20585;-76
2023/08/22 05:31:33;;;;;;;10.73;6.07;;;21.90;99.90;;;;;;4951595;28;20574;-76
2023/08/22 05:33:59;;;;;;;11.77;6.10;;;21.90;99.90;;;;;;4951293;28;20642;-76
2023/08/22 05:36:26;;;;;;;10.53;5.90;;;22.00;99.90;;;;;;4952067;29;20302;-74
2023/08/22 05:38:52;;;;;;;7.33;5.43;;;22.00;99.90;;;;;;4938651;28;20681;-72
2023/08/22 05:41:18;;;;;;;10.73;5.77;;;22.00;99.90;;;;;;4933596;29;20180;-72
2023/08/22 05:43:43;;;;;;;10.00;5.70;;;22.10;99.90;;;;;;4932145;29;20636;-73
2023/08/22 05:46:09;;;;;;;10.93;5.17;;;22.20;99.90;;;;;;4932208;29;20295;-73
2023/08/22 05:48:35;;;;;;;9.83;5.50;;;22.20;99.90;;;;;;4932761;29;20181;-77
2023/08/22 05:51:02;;;;;;;10.30;4.57;;;22.30;99.90;;;;;;4932295;29;20640;-77
2023/08/22 05:53:29;;;;;;;9.23;4.87;;;22.40;99.90;;;;;;4932175;29;20883;-77
2023/08/22 05:55:55;;;;;;;7.40;4.47;;;22.50;99.90;;;;;;4932312;29;20648;-77
2023/08/22 05:58:21;;;;;;;5.53;3.83;;;22.60;99.90;;;;;;4936226;29;20687;-77
2023/08/22 06:00:47;;;;;;;8.57;5.23;;;22.80;99.90;;;;;;4920536;29;20600;-77
2023/08/22 06:03:13;;;;;;;6.33;5.30;;;22.90;99.90;;;;;;4921064;29;20592;-77
2023/08/22 06:05:40;;;;;;;10.90;5.37;;;23.00;99.90;;;;;;4933393;29;21006;-77
2023/08/22 06:08:06;;;;;;;5.57;4.60;;;23.10;99.90;;;;;;4912727;29;20696;-77
2023/08/22 06:10:32;;;;;;;7.57;5.37;;;23.20;99.90;;;;;;4951805;29;20664;-77
2023/08/22 06:12:57;;;;;;;11.23;5.70;;;23.40;99.90;;;;;;4935221;29;20188;-77
2023/08/22 06:15:23;;;;;;;7.00;4.57;;;23.50;99.90;;;;;;4936261;29;20801;-77
2023/08/22 06:17:49;;;;;;;8.40;4.70;;;23.70;99.90;;;;;;4920533;29;20173;-77
2023/08/22 06:20:15;;;;;;;9.20;5.23;;;23.90;99.90;;;;;;4943654;29;20647;-77
2023/08/22 06:22:41;;;;;;;8.00;4.93;;;24.10;99.90;;;;;;4954824;29;20675;-77
2023/08/22 06:25:07;;;;;;;6.57;5.20;;;24.30;99.90;;;;;;4922813;29;20616;-77
2023/08/22 06:27:33;;;;;;;8.63;4.80;;;24.40;99.90;;;;;;4946287;29;20191;-77
2023/08/22 06:30:01;;;;;;;8.97;5.50;;;24.50;99.90;;;;;;4954690;28;20599;-77
2023/08/22 06:32:31;;;;;;;13.77;5.37;;;24.60;99.90;;;;;;4950429;28;20607;-77
2023/08/22 06:35:00;;;;;;;11.13;4.80;;;24.90;99.90;;;;;;4948150;28;20643;-77
2023/08/22 06:37:27;;;;;;;7.60;5.27;;;25.30;99.90;;;;;;4935539;28;20177;-77
2023/08/22 06:39:53;;;;;;;9.70;5.37;;;25.70;99.90;;;;;;4915799;29;20632;-77
2023/08/22 06:42:19;;;;;;;8.80;5.40;;;26.10;99.90;;;;;;4932161;29;20637;-77
2023/08/22 06:44:49;;;;;;;6.30;4.73;;;26.50;99.90;;;;;;4921225;29;21063;-77
2023/08/22 06:47:15;;;;;;;13.13;5.53;;;27.00;99.90;;;;;;4935487;29;20666;-77
2023/08/22 06:49:41;;;;;;;11.23;5.87;;;27.60;99.90;;;;;;4935846;29;20617;-77
2023/08/22 06:52:06;;;;;;;11.00;6.60;;;28.10;99.90;;;;;;4937210;29;20236;-77
2023/08/22 06:54:32;;;;;;;9.43;5.83;;;28.40;99.90;;;;;;4948036;29;20185;-77
2023/08/22 06:56:58;;;;;;;8.77;5.80;;;28.70;99.90;;;;;;4936059;29;20216;-77
2023/08/22 06:59:24;;;;;;;11.23;5.60;;;29.10;99.90;;;;;;4920092;29;20192;-77
2023/08/22 07:01:50;;;;;;;9.23;5.53;;;29.50;99.90;;;;;;4938059;29;20591;-77
2023/08/22 07:04:16;;;;;;;13.00;5.83;;;30.00;99.90;;;;;;4936470;29;20588;-75
2023/08/22 07:06:42;;;;;;;15.93;6.50;;;30.60;99.90;;;;;;4935280;29;20263;-75
2023/08/22 07:09:07;;;;;;;10.70;5.13;;;31.00;99.90;;;;;;4934235;29;20999;-75
2023/08/22 07:11:33;;;;;;;7.33;4.97;;;31.30;99.90;;;;;;4936548;29;20184;-75
2023/08/22 07:13:59;;;;;;;11.73;5.47;;;31.40;99.90;;;;;;4936348;29;20174;-76
2023/08/22 07:16:25;;;;;;;8.43;5.10;;;31.30;99.90;;;;;;4936928;29;20259;-76
2023/08/22 07:18:50;;;;;;;8.87;5.00;;;31.30;99.90;;;;;;4923537;29;20860;-75
2023/08/22 07:21:16;;;;;;;8.47;4.63;;;31.30;99.90;;;;;;4933216;29;20537;-76
2023/08/22 07:23:42;;;;;;;8.87;5.33;;;31.40;99.90;;;;;;4936227;29;20213;-76
2023/08/22 07:26:08;;;;;;;6.03;3.90;;;31.60;99.90;;;;;;4949965;28;21007;-77
2023/08/22 07:28:34;;;;;;;8.50;4.77;;;31.80;99.90;;;;;;4910766;29;20187;-77
2023/08/22 07:31:03;;;;;;;8.07;4.60;;;32.20;99.90;;;;;;4930784;29;20176;-76
2023/08/22 07:33:30;;;;;;;6.33;4.17;;;32.90;99.90;;;;;;4935873;29;20789;-76
2023/08/22 07:35:55;;;;;;;6.60;4.43;;;33.70;99.90;;;;;;4934444;29;21077;-77
2023/08/22 07:38:21;;;;;;;4.80;3.33;;;34.30;99.90;;;;;;4934624;29;20593;-77
2023/08/22 07:40:47;;;;;;;6.40;4.20;;;34.90;99.90;;;;;;4936136;29;20240;-77
2023/08/22 07:43:13;;;;;;;5.60;4.33;;;35.30;99.90;;;;;;4935730;29;20655;-76
2023/08/22 07:45:38;;;;;;;7.10;4.17;;;35.70;99.90;;;;;;4946973;28;20221;-77
2023/08/22 07:48:05;;;;;;;6.90;4.80;;;35.90;99.10;;;;;;4915653;29;20216;-77
2023/08/22 07:50:30;;;;;;;5.20;3.77;;;35.90;97.50;;;;;;4934702;29;20192;-76
2023/08/22 07:52:56;;;;;;;7.00;4.20;;;36.00;96.50;;;;;;4935167;29;21114;-76
2023/08/22 07:55:26;;;;;;;4.97;3.50;;;36.00;95.60;;;;;;4932319;29;20208;-76
2023/08/22 07:57:52;;;;;;;8.10;4.40;;;36.40;95.10;;;;;;4932262;29;20612;-77
2023/08/22 08:00:18;;;;;;;6.50;3.53;;;36.90;94.90;;;;;;4934158;29;20597;-77
2023/08/22 08:02:45;;;;;;;6.27;4.13;;;37.10;93.40;;;;;;4933013;29;21279;-77
2023/08/22 08:05:12;;;;;;;8.37;4.47;;;37.20;91.90;;;;;;4928144;29;20719;-77
2023/08/22 08:07:39;;;;;;;4.40;2.73;;;37.10;90.70;;;;;;4932952;29;20597;-77
2023/08/22 08:10:05;;;;;;;5.87;3.70;;;37.00;89.60;;;;;;4934213;29;20597;-79
2023/08/22 08:12:31;;;;;;;6.87;4.50;;;36.70;87.60;;;;;;4935387;29;20664;-78
2023/08/22 08:14:56;;;;;;;8.20;4.20;;;36.40;85.70;;;;;;4933681;29;20628;-78
2023/08/22 08:17:22;;;;;;;4.50;3.50;;;36.10;84.70;;;;;;4935343;29;20184;-78
2023/08/22 08:19:48;;;;;;;5.10;3.53;;;35.70;83.80;;;;;;4933802;29;20177;-78
2023/08/22 08:22:14;;;;;;;5.80;4.10;;;35.30;83.30;;;;;;4935101;29;20679;-78
2023/08/22 08:24:40;;;;;;;5.00;3.40;;;35.00;82.90;;;;;;4933586;29;20203;-78
2023/08/22 08:27:06;;;;;;;6.83;4.00;;;34.70;84.00;;;;;;4936036;29;20675;-77
2023/08/22 08:29:32;;;;;;;4.60;2.77;;;34.60;85.10;;;;;;4937138;29;20184;-77
2023/08/22 08:31:58;;;;;;;6.10;3.57;;;34.60;86.40;;;;;;4933494;29;20589;-79
2023/08/22 08:34:24;;;;;;;5.10;3.17;;;34.80;86.70;;;;;;4943292;29;20595;-80
2023/08/22 08:36:50;;;;;;;9.80;3.30;;;34.80;85.80;;;;;;4935330;29;20181;-80
2023/08/22 08:39:17;;;;;;;5.00;3.27;;;34.70;85.60;;;;;;4933615;29;20597;-80
2023/08/22 08:42:07;;;;;;;5.03;2.63;;;34.90;86.30;;;;;;4922537;29;20601;-79
2023/08/22 08:44:34;;;;;;;5.00;2.83;;;35.00;86.10;;;;;;4933655;29;20588;-80
2023/08/22 08:47:00;;;;;;;11.07;3.00;;;35.30;86.00;;;;;;4934640;29;20660;-81
2023/08/22 08:49:27;;;;;;;3.80;3.07;;;35.40;85.20;;;;;;4934794;29;20683;-80
2023/08/22 08:51:53;;;;;;;5.23;3.10;;;35.70;84.80;;;;;;4933627;29;20601;-79
2023/08/22 08:54:22;;;;;;;5.03;2.40;;;36.30;85.00;;;;;;4933497;29;20630;-80
2023/08/22 08:56:47;;;;;;;5.20;2.33;;;36.60;83.20;;;;;;4951795;29;20585;-79
2023/08/22 08:59:14;;;;;;;4.60;2.37;;;37.00;82.10;;;;;;4935312;29;20596;-80
2023/08/22 09:01:44;;;;;;;4.73;2.53;;;37.20;80.70;;;;;;4935058;29;20185;-80
2023/08/22 09:04:10;;;;;;;5.00;2.40;;;37.50;78.90;;;;;;4938005;29;20585;-82
2023/08/22 09:06:38;;;;;;;6.20;2.13;;;37.90;78.70;;;;;;4936892;29;20640;-80
2023/08/22 09:09:08;;;;;;;7.03;2.67;;;38.30;77.80;;;;;;4935090;29;20236;-80
2023/08/22 09:11:35;;;;;;;4.40;2.30;;;38.80;76.80;;;;;;4935055;29;20684;-81
2023/08/22 09:14:01;;;;;;;5.33;1.80;;;39.20;75.50;;;;;;4933133;29;20597;-80
2023/08/22 09:16:30;;;;;;;5.73;1.80;;;39.80;73.80;;;;;;4933750;29;20629;-80
2023/08/22 09:19:00;;;;;;;5.40;1.80;;;40.20;72.00;;;;;;4934790;29;20232;-80
2023/08/22 09:21:25;;;;;;;3.17;1.70;;;40.60;70.00;;;;;;4934463;29;20592;-80
2023/08/22 09:23:52;;;;;;;6.77;1.17;;;41.00;68.60;;;;;;4933040;29;20600;-81
2023/08/22 09:26:22;;;;;;;4.07;1.23;;;41.40;67.60;;;;;;4932662;29;20220;-80
2023/08/22 09:28:50;;;;;;;2.83;1.53;;;41.80;63.60;;;;;;4932822;29;20943;-80
2023/08/22 09:31:23;;;;;;;3.43;1.67;;;41.90;61.70;;;;;;4933558;29;20643;-80
2023/08/22 09:33:50;;;;;;;3.47;1.67;;;41.80;58.20;;;;;;4933643;29;20577;-80
2023/08/22 09:36:20;;;;;;;3.27;1.60;;;41.50;57.40;;;;;;4929084;29;21378;-80
2023/08/22 09:39:05;;;;;;;6.10;1.50;;;41.50;57.40;;;;;;4932801;29;21171;-80
2023/08/22 09:41:31;;;;;;;4.00;1.53;;;41.60;55.90;;;;;;4934183;29;20600;-80
2023/08/22 09:44:00;;;;;;;3.77;1.60;;;41.60;56.30;;;;;;4932588;29;20593;-80
2023/08/22 09:46:26;;;;;;;4.20;1.93;;;41.50;55.40;;;;;;4930735;29;20220;-80
2023/08/22 09:48:56;;;;;;;4.23;1.83;;;41.30;54.80;;;;;;4933621;29;20623;-80
2023/08/22 09:51:22;;;;;;;4.80;1.40;;;41.10;54.50;;;;;;4932039;29;20589;-80
2023/08/22 09:53:51;;;;;;;6.37;2.30;;;40.80;55.20;;;;;;4931973;29;20956;-80
2023/08/22 09:56:20;;;;;;;7.87;1.67;;;40.50;54.00;;;;;;4933644;29;20220;-80
2023/08/22 09:59:34;;;;;;;4.40;2.13;;;40.20;53.80;;;;;;4934018;29;20577;-80
2023/08/22 10:02:50;;;;;;;3.43;1.77;;;39.90;54.10;;;;;;4903240;29;20636;-77
2023/08/22 10:05:16;;;;;;;2.27;1.47;;;39.60;53.60;;;;;;4936017;29;21284;-77
2023/08/22 10:07:42;;;;;;;2.37;1.23;;;39.60;54.20;;;;;;4937069;29;20588;-78
2023/08/22 10:10:09;;;;;;;3.77;1.53;;;39.70;54.50;;;;;;4935028;29;20577;-76
2023/08/22 10:12:35;;;;;;;2.60;1.20;;;39.80;54.20;;;;;;4933907;29;20200;-77
2023/08/22 10:15:48;;;;;;;4.80;1.23;;;39.90;53.50;;;;;;4935221;29;20608;-77
2023/08/22 10:18:14;;;;;;;4.10;1.70;;;40.00;54.00;;;;;;4902562;29;20613;-78
2023/08/22 10:20:42;;;;;;;4.50;1.87;;;40.10;53.30;;;;;;4929337;29;20679;-78
2023/08/22 10:23:44;;;;;;;3.57;1.77;;;40.00;52.60;;;;;;4932839;29;20173;-78
2023/08/22 10:26:59;;;;;;;3.60;1.33;;;39.80;52.90;;;;;;4919537;29;20628;-78
2023/08/22 10:29:29;;;;;;;3.67;1.30;;;39.90;52.90;;;;;;4929742;29;20640;-78
2023/08/22 10:32:01;;;;;;;4.90;2.00;;;40.20;53.40;;;;;;4932820;29;20998;-77
2023/08/22 10:34:27;;;;;;;4.80;2.10;;;40.30;52.60;;;;;;4932313;29;20648;-78
2023/08/22 10:36:59;;;;;;;3.37;1.60;;;40.30;51.80;;;;;;4931878;29;21206;-77
2023/08/22 10:39:44;;;;;;;3.70;1.33;;;40.10;50.70;;;;;;4932388;29;20573;-77
2023/08/22 10:42:20;;;;;;;4.47;1.50;;;39.70;50.60;;;;;;4914560;29;20600;-77
2023/08/22 10:44:49;;;;;;;4.37;2.20;;;39.30;50.70;;;;;;4935179;29;20640;-77
2023/08/22 10:47:18;;;;;;;6.87;2.70;;;39.00;50.50;;;;;;4936919;29;21056;-77
2023/08/22 10:49:49;;;;;;;4.20;2.00;;;38.50;50.30;;;;;;4919080;29;20597;-77
2023/08/22 10:52:16;;;;;;;3.73;1.80;;;38.10;50.00;;;;;;4951389;29;20596;-77
2023/08/22 10:55:05;;;;;;;4.03;1.97;;;37.50;50.00;;;;;;4936499;29;20624;-77
2023/08/22 10:57:38;;;;;;;3.20;1.80;;;37.00;50.50;;;;;;4935450;29;20675;-77
2023/08/22 11:00:14;;;;;;;4.83;1.90;;;36.60;50.70;;;;;;4935469;29;21367;-77
2023/08/22 11:02:44;;;;;;;3.60;1.57;;;36.30;51.30;;;;;;4937014;29;21223;-77
2023/08/22 11:05:11;;;;;;;5.43;1.70;;;36.00;51.80;;;;;;4935298;29;20651;-77
2023/08/22 11:07:46;;;;;;;4.50;1.43;;;35.70;52.10;;;;;;4935475;29;20600;-77
2023/08/22 11:10:14;;;;;;;2.90;1.63;;;35.40;52.20;;;;;;4936620;29;20603;-77
2023/08/22 11:12:40;;;;;;;4.03;1.50;;;35.10;52.30;;;;;;4936273;29;20692;-77
2023/08/22 11:15:07;;;;;;;3.83;1.27;;;34.90;52.50;;;;;;4935121;29;20772;-77
2023/08/22 11:17:39;;;;;;;3.97;1.27;;;34.70;52.60;;;;;;4935398;29;20651;-77
2023/08/22 11:20:10;;;;;;;3.90;1.30;;;34.50;52.60;;;;;;4935125;29;20916;-76
2023/08/22 11:22:36;;;;;;;3.70;1.37;;;34.30;52.70;;;;;;4935165;29;21189;-77
2023/08/22 11:25:01;;;;;;;2.43;1.10;;;34.00;52.70;;;;;;4934836;29;20854;-78
2023/08/22 11:27:28;;;;;;;2.73;1.00;;;33.80;53.00;;;;;;4936336;29;20187;-77
2023/08/22 11:29:53;;;;;;;4.83;1.10;;;33.70;53.60;;;;;;4935446;29;20186;-77
2023/08/22 11:32:30;;;;;;;8.20;1.40;;;33.50;53.80;;;;;;4936250;29;21231;-77
2023/08/22 11:34:59;;;;;;;2.60;1.27;;;33.30;53.90;;;;;;4939504;29;20212;-79
2023/08/22 11:37:25;;;;;;;7.73;1.87;;;33.20;54.10;;;;;;4939170;29;20651;-76
2023/08/22 11:39:53;;;;;;;5.73;1.30;;;33.10;54.10;;;;;;4918618;29;20591;-76
2023/08/22 11:42:20;;;;;;;5.47;1.60;;;32.90;54.10;;;;;;4923196;29;21272;-76
2023/08/22 11:44:53;;;;;;;3.47;1.60;;;32.70;54.30;;;;;;4947839;29;21243;-76
2023/08/22 11:47:19;;;;;;;4.97;1.37;;;32.60;55.10;;;;;;4916676;29;21169;-76
2023/08/22 11:49:49;;;;;;;4.47;1.10;;;32.70;55.30;;;;;;4948389;29;20650;-76
2023/08/22 11:52:16;;;;;;;3.17;1.07;;;32.80;55.70;;;;;;4933876;29;20599;-76
2023/08/22 11:54:45;;;;;;;2.90;1.00;;;33.10;56.20;;;;;;4932974;29;20657;-77
2023/08/22 11:57:12;;;;;;;4.03;1.23;;;33.40;56.20;;;;;;4933886;29;20640;-76
2023/08/22 11:59:42;;;;;;;2.47;1.00;;;33.70;56.40;;;;;;4933155;29;20628;-77
2023/08/22 12:02:10;;;;;;;4.80;1.40;;;34.00;56.90;;;;;;4916009;29;21176;-77
2023/08/22 12:04:43;;;;;;;2.27;0.93;;;34.30;56.10;;;;;;4929148;29;20594;-77
2023/08/22 12:07:09;;;;;;;4.67;1.77;;;34.50;56.30;;;;;;4934209;29;20592;-77
2023/08/22 12:09:38;;;;;;;2.70;1.40;;;34.80;55.70;;;;;;4933997;29;20605;-77
2023/08/22 12:12:14;;;;;;;2.43;1.00;;;35.10;55.80;;;;;;4935063;29;20585;-76
2023/08/22 12:14:40;;;;;;;5.03;1.13;;;35.30;55.30;;;;;;4933482;29;20208;-76
2023/08/22 12:17:06;;;;;;;2.77;0.90;;;35.50;54.90;;;;;;4935146;29;20640;-77
2023/08/22 12:19:32;;;;;;;3.70;1.10;;;35.60;54.20;;;;;;4949466;28;20953;-77
2023/08/22 12:21:59;;;;;;;4.63;1.07;;;35.60;53.50;;;;;;4933550;29;20684;-77
2023/08/22 12:24:26;;;;;;;5.90;1.30;;;35.60;53.20;;;;;;4933463;29;20938;-77
2023/08/22 12:26:52;;;;;;;3.53;1.23;;;35.50;52.70;;;;;;4934656;29;20627;-77
2023/08/22 12:29:18;;;;;;;2.60;1.10;;;35.40;52.30;;;;;;4934804;29;20640;-77
2023/08/22 12:31:43;;;;;;;3.83;1.40;;;35.20;52.00;;;;;;4933490;29;21163;-77
2023/08/22 12:34:09;;;;;;;3.30;1.43;;;35.00;51.90;;;;;;4934496;29;20636;-77
2023/08/22 12:36:35;;;;;;;2.13;1.10;;;34.80;52.00;;;;;;4934437;29;20208;-77
2023/08/22 12:39:00;;;;;;;2.63;1.03;;;34.60;52.10;;;;;;4934576;29;20182;-77
2023/08/22 12:41:28;;;;;;;2.50;1.10;;;34.40;52.20;;;;;;4910175;29;20229;-77
2023/08/22 12:43:53;;;;;;;4.10;1.17;;;34.20;52.50;;;;;;4925561;29;21060;-77
2023/08/22 12:46:19;;;;;;;3.73;0.97;;;34.10;53.00;;;;;;4948687;29;20218;-76
2023/08/22 12:48:45;;;;;;;4.63;1.43;;;34.00;53.20;;;;;;4934578;29;20216;-76